Burlington, Oregon
Current Conditions -  °F | °C
As of 8:53 AM on Friday 19 Dec 2014 (Local Time) from KHIO Reporting Station
Broken Clouds Broken Clouds  
Wind Chill: 42°   Ceiling: 5000
Heat Index: 45°   Visibility: 10mi
Dew Point: 42°   Wind: 6mph
Humidity: 90%   Direction: 200°SSW
Pressure: 29.97"   Gusts: NA
Location:  45.6308°N, 122.858°W
Report Text: KHIO 191653Z 20005KT 10SM SCT015 BKN050 07/06 A2997 RMK AO2 SLP150 T00720056
Loading
Personal Weather Stations






























Interactive Weather Map New forecast layout! Learn more

10-Day Weather Forecast

Advertisements
Track Severe Weather on mobile